sensor_id;sensor_type;location;lat;lon;timestamp;P1;durP1;ratioP1;P2;durP2;ratioP2
15488;SDS011;7846;48.830;9.116;2023-02-27T00:00:09;2.00;;;1.20;;
15488;SDS011;7846;48.830;9.116;2023-02-27T00:02:42;1.20;;;1.10;;
15488;SDS011;7846;48.830;9.116;2023-02-27T00:05:11;1.42;;;1.10;;
15488;SDS011;7846;48.830;9.116;2023-02-27T00:07:37;2.13;;;1.13;;
15488;SDS011;7846;48.830;9.116;2023-02-27T00:10:03;2.20;;;1.27;;
15488;SDS011;7846;48.830;9.116;2023-02-27T00:12:30;1.30;;;1.00;;
15488;SDS011;7846;48.830;9.116;2023-02-27T00:15:02;1.40;;;1.10;;
15488;SDS011;7846;48.830;9.116;2023-02-27T00:17:31;1.30;;;1.20;;
15488;SDS011;7846;48.830;9.116;2023-02-27T00:19:57;1.60;;;1.20;;
15488;SDS011;7846;48.830;9.116;2023-02-27T00:22:23;1.30;;;1.20;;
15488;SDS011;7846;48.830;9.116;2023-02-27T00:24:50;2.13;;;1.17;;
15488;SDS011;7846;48.830;9.116;2023-02-27T00:27:16;2.10;;;1.30;;
15488;SDS011;7846;48.830;9.116;2023-02-27T00:29:41;1.60;;;1.20;;
15488;SDS011;7846;48.830;9.116;2023-02-27T00:32:07;1.23;;;1.13;;
15488;SDS011;7846;48.830;9.116;2023-02-27T00:34:33;1.20;;;1.10;;
15488;SDS011;7846;48.830;9.116;2023-02-27T00:36:58;1.70;;;1.10;;
15488;SDS011;7846;48.830;9.116;2023-02-27T00:39:24;2.23;;;1.00;;
15488;SDS011;7846;48.830;9.116;2023-02-27T00:41:50;2.33;;;1.20;;
15488;SDS011;7846;48.830;9.116;2023-02-27T00:44:17;2.50;;;1.10;;
15488;SDS011;7846;48.830;9.116;2023-02-27T00:46:42;1.20;;;1.10;;
15488;SDS011;7846;48.830;9.116;2023-02-27T00:49:08;2.27;;;1.30;;
15488;SDS011;7846;48.830;9.116;2023-02-27T00:51:34;2.33;;;1.40;;
15488;SDS011;7846;48.830;9.116;2023-02-27T00:53:59;1.37;;;1.27;;
15488;SDS011;7846;48.830;9.116;2023-02-27T00:56:25;2.40;;;1.30;;
15488;SDS011;7846;48.830;9.116;2023-02-27T00:58:50;1.37;;;1.20;;
15488;SDS011;7846;48.830;9.116;2023-02-27T01:01:16;1.10;;;1.10;;
15488;SDS011;7846;48.830;9.116;2023-02-27T01:03:41;2.23;;;1.60;;
15488;SDS011;7846;48.830;9.116;2023-02-27T01:06:06;2.27;;;1.50;;
15488;SDS011;7846;48.830;9.116;2023-02-27T01:08:32;1.67;;;1.30;;
15488;SDS011;7846;48.830;9.116;2023-02-27T01:10:57;1.30;;;1.20;;
15488;SDS011;7846;48.830;9.116;2023-02-27T01:13:23;1.40;;;1.30;;
15488;SDS011;7846;48.830;9.116;2023-02-27T01:15:48;1.40;;;1.20;;
15488;SDS011;7846;48.830;9.116;2023-02-27T01:18:14;2.03;;;1.57;;
15488;SDS011;7846;48.830;9.116;2023-02-27T01:20:39;2.70;;;1.37;;
15488;SDS011;7846;48.830;9.116;2023-02-27T01:23:05;2.33;;;1.47;;
15488;SDS011;7846;48.830;9.116;2023-02-27T01:25:31;2.30;;;1.40;;
15488;SDS011;7846;48.830;9.116;2023-02-27T01:27:58;1.77;;;1.48;;
15488;SDS011;7846;48.830;9.116;2023-02-27T01:30:23;2.60;;;1.40;;
15488;SDS011;7846;48.830;9.116;2023-02-27T01:32:50;1.93;;;1.20;;
15488;SDS011;7846;48.830;9.116;2023-02-27T01:35:15;1.50;;;1.40;;
15488;SDS011;7846;48.830;9.116;2023-02-27T01:37:41;1.97;;;1.50;;
15488;SDS011;7846;48.830;9.116;2023-02-27T01:40:09;1.63;;;1.40;;
15488;SDS011;7846;48.830;9.116;2023-02-27T01:42:35;1.40;;;1.30;;
15488;SDS011;7846;48.830;9.116;2023-02-27T01:45:02;2.30;;;1.60;;
15488;SDS011;7846;48.830;9.116;2023-02-27T01:47:44;1.57;;;1.47;;
15488;SDS011;7846;48.830;9.116;2023-02-27T01:50:13;1.95;;;1.38;;
15488;SDS011;7846;48.830;9.116;2023-02-27T01:52:41;2.10;;;1.40;;
15488;SDS011;7846;48.830;9.116;2023-02-27T01:55:08;1.73;;;1.30;;
15488;SDS011;7846;48.830;9.116;2023-02-27T01:57:37;3.03;;;1.80;;
15488;SDS011;7846;48.830;9.116;2023-02-27T02:00:03;1.70;;;1.40;;
15488;SDS011;7846;48.830;9.116;2023-02-27T02:02:35;1.40;;;1.30;;
15488;SDS011;7846;48.830;9.116;2023-02-27T02:05:05;1.70;;;1.42;;
15488;SDS011;7846;48.830;9.116;2023-02-27T02:07:32;1.97;;;1.40;;
15488;SDS011;7846;48.830;9.116;2023-02-27T02:10:02;2.63;;;1.60;;
15488;SDS011;7846;48.830;9.116;2023-02-27T02:12:29;1.35;;;1.23;;
15488;SDS011;7846;48.830;9.116;2023-02-27T02:14:57;1.85;;;1.30;;
15488;SDS011;7846;48.830;9.116;2023-02-27T02:17:33;1.50;;;1.37;;
15488;SDS011;7846;48.830;9.116;2023-02-27T02:20:40;2.75;;;1.38;;
15488;SDS011;7846;48.830;9.116;2023-02-27T02:35:19;1.90;;;1.60;;
15488;SDS011;7846;48.830;9.116;2023-02-27T02:40:59;2.58;;;1.60;;
15488;SDS011;7846;48.830;9.116;2023-02-27T02:48:57;1.63;;;1.33;;
15488;SDS011;7846;48.830;9.116;2023-02-27T02:51:36;2.03;;;1.50;;
15488;SDS011;7846;48.830;9.116;2023-02-27T02:54:19;2.67;;;1.53;;
15488;SDS011;7846;48.830;9.116;2023-02-27T02:57:05;1.95;;;1.50;;
15488;SDS011;7846;48.830;9.116;2023-02-27T02:59:41;2.53;;;1.55;;
15488;SDS011;7846;48.830;9.116;2023-02-27T03:02:15;1.70;;;1.60;;
15488;SDS011;7846;48.830;9.116;2023-02-27T03:05:01;1.70;;;1.50;;
15488;SDS011;7846;48.830;9.116;2023-02-27T03:07:42;1.97;;;1.47;;
15488;SDS011;7846;48.830;9.116;2023-02-27T03:10:26;1.67;;;1.47;;
15488;SDS011;7846;48.830;9.116;2023-02-27T03:13:06;2.03;;;1.60;;
15488;SDS011;7846;48.830;9.116;2023-02-27T03:15:57;2.27;;;1.70;;
15488;SDS011;7846;48.830;9.116;2023-02-27T03:18:31;3.08;;;1.55;;
15488;SDS011;7846;48.830;9.116;2023-02-27T03:21:02;2.20;;;1.63;;
15488;SDS011;7846;48.830;9.116;2023-02-27T03:23:33;2.47;;;1.60;;
15488;SDS011;7846;48.830;9.116;2023-02-27T03:26:04;2.67;;;1.77;;
15488;SDS011;7846;48.830;9.116;2023-02-27T03:28:31;1.30;;;1.20;;
15488;SDS011;7846;48.830;9.116;2023-02-27T03:33:54;3.00;;;1.70;;
15488;SDS011;7846;48.830;9.116;2023-02-27T03:39:15;2.13;;;1.53;;
15488;SDS011;7846;48.830;9.116;2023-02-27T03:42:00;3.08;;;1.70;;
15488;SDS011;7846;48.830;9.116;2023-02-27T03:44:34;1.67;;;1.48;;
15488;SDS011;7846;48.830;9.116;2023-02-27T03:47:15;1.80;;;1.50;;
15488;SDS011;7846;48.830;9.116;2023-02-27T03:49:41;2.25;;;1.65;;
15488;SDS011;7846;48.830;9.116;2023-02-27T03:52:07;1.70;;;1.60;;
15488;SDS011;7846;48.830;9.116;2023-02-27T03:54:34;2.60;;;2.07;;
15488;SDS011;7846;48.830;9.116;2023-02-27T03:57:04;1.60;;;1.50;;
15488;SDS011;7846;48.830;9.116;2023-02-27T03:59:33;2.17;;;1.60;;
15488;SDS011;7846;48.830;9.116;2023-02-27T04:02:01;1.63;;;1.50;;
15488;SDS011;7846;48.830;9.116;2023-02-27T04:04:29;2.77;;;1.73;;
15488;SDS011;7846;48.830;9.116;2023-02-27T04:06:58;1.42;;;1.35;;
15488;SDS011;7846;48.830;9.116;2023-02-27T04:21:36;2.22;;;1.70;;
15488;SDS011;7846;48.830;9.116;2023-02-27T04:26:54;2.00;;;1.90;;
15488;SDS011;7846;48.830;9.116;2023-02-27T04:29:29;2.30;;;1.80;;
15488;SDS011;7846;48.830;9.116;2023-02-27T04:32:17;2.30;;;1.70;;
15488;SDS011;7846;48.830;9.116;2023-02-27T04:34:52;1.90;;;1.70;;
15488;SDS011;7846;48.830;9.116;2023-02-27T04:37:23;3.43;;;2.07;;
15488;SDS011;7846;48.830;9.116;2023-02-27T04:39:55;2.00;;;1.80;;
15488;SDS011;7846;48.830;9.116;2023-02-27T04:42:25;2.08;;;1.88;;
15488;SDS011;7846;48.830;9.116;2023-02-27T04:44:56;1.98;;;1.83;;
15488;SDS011;7846;48.830;9.116;2023-02-27T04:47:24;2.10;;;1.80;;
15488;SDS011;7846;48.830;9.116;2023-02-27T04:49:58;2.33;;;2.13;;
15488;SDS011;7846;48.830;9.116;2023-02-27T04:52:31;2.08;;;1.85;;
15488;SDS011;7846;48.830;9.116;2023-02-27T04:55:27;2.58;;;1.98;;
15488;SDS011;7846;48.830;9.116;2023-02-27T04:58:05;1.97;;;1.87;;
15488;SDS011;7846;48.830;9.116;2023-02-27T05:00:36;3.13;;;1.80;;
15488;SDS011;7846;48.830;9.116;2023-02-27T05:03:07;5.82;;;1.90;;
15488;SDS011;7846;48.830;9.116;2023-02-27T05:05:38;2.40;;;2.00;;
15488;SDS011;7846;48.830;9.116;2023-02-27T05:08:08;2.60;;;1.80;;
15488;SDS011;7846;48.830;9.116;2023-02-27T05:10:44;3.08;;;1.80;;
15488;SDS011;7846;48.830;9.116;2023-02-27T05:13:16;2.25;;;2.05;;
15488;SDS011;7846;48.830;9.116;2023-02-27T05:15:46;2.90;;;2.22;;
15488;SDS011;7846;48.830;9.116;2023-02-27T05:18:16;2.27;;;2.07;;
15488;SDS011;7846;48.830;9.116;2023-02-27T05:26:39;4.07;;;2.30;;
15488;SDS011;7846;48.830;9.116;2023-02-27T05:29:13;2.50;;;2.13;;
15488;SDS011;7846;48.830;9.116;2023-02-27T05:31:56;3.40;;;2.05;;
15488;SDS011;7846;48.830;9.116;2023-02-27T05:34:31;2.33;;;2.00;;
15488;SDS011;7846;48.830;9.116;2023-02-27T05:37:06;3.33;;;2.70;;
15488;SDS011;7846;48.830;9.116;2023-02-27T05:39:55;3.53;;;2.35;;
15488;SDS011;7846;48.830;9.116;2023-02-27T05:42:25;3.93;;;2.20;;
15488;SDS011;7846;48.830;9.116;2023-02-27T05:44:57;3.10;;;2.20;;
15488;SDS011;7846;48.830;9.116;2023-02-27T05:47:28;3.13;;;2.27;;
15488;SDS011;7846;48.830;9.116;2023-02-27T05:50:15;3.10;;;2.25;;
15488;SDS011;7846;48.830;9.116;2023-02-27T05:52:45;5.35;;;2.20;;
15488;SDS011;7846;48.830;9.116;2023-02-27T05:55:17;4.70;;;2.20;;
15488;SDS011;7846;48.830;9.116;2023-02-27T05:57:46;2.38;;;1.90;;
15488;SDS011;7846;48.830;9.116;2023-02-27T06:00:19;4.15;;;2.20;;
15488;SDS011;7846;48.830;9.116;2023-02-27T06:02:50;4.80;;;2.13;;
15488;SDS011;7846;48.830;9.116;2023-02-27T06:05:17;2.72;;;2.10;;
15488;SDS011;7846;48.830;9.116;2023-02-27T06:07:43;3.60;;;2.10;;
15488;SDS011;7846;48.830;9.116;2023-02-27T06:10:13;3.07;;;2.30;;
15488;SDS011;7846;48.830;9.116;2023-02-27T06:12:39;2.67;;;2.30;;
15488;SDS011;7846;48.830;9.116;2023-02-27T06:15:05;3.40;;;2.30;;
15488;SDS011;7846;48.830;9.116;2023-02-27T06:17:31;2.27;;;2.00;;
15488;SDS011;7846;48.830;9.116;2023-02-27T06:19:56;3.43;;;2.40;;
15488;SDS011;7846;48.830;9.116;2023-02-27T06:22:21;4.87;;;2.17;;
15488;SDS011;7846;48.830;9.116;2023-02-27T06:24:47;4.57;;;2.30;;
15488;SDS011;7846;48.830;9.116;2023-02-27T06:27:12;5.53;;;2.20;;
15488;SDS011;7846;48.830;9.116;2023-02-27T06:29:40;3.20;;;2.20;;
15488;SDS011;7846;48.830;9.116;2023-02-27T06:32:06;3.60;;;2.20;;
15488;SDS011;7846;48.830;9.116;2023-02-27T06:34:31;3.47;;;2.40;;
15488;SDS011;7846;48.830;9.116;2023-02-27T06:36:57;3.63;;;2.30;;
15488;SDS011;7846;48.830;9.116;2023-02-27T06:39:24;2.78;;;2.47;;
15488;SDS011;7846;48.830;9.116;2023-02-27T06:41:51;3.50;;;2.43;;
15488;SDS011;7846;48.830;9.116;2023-02-27T06:44:17;2.80;;;2.50;;
15488;SDS011;7846;48.830;9.116;2023-02-27T06:46:42;3.20;;;2.40;;
15488;SDS011;7846;48.830;9.116;2023-02-27T06:49:08;3.53;;;2.40;;
15488;SDS011;7846;48.830;9.116;2023-02-27T06:51:33;2.87;;;2.03;;
15488;SDS011;7846;48.830;9.116;2023-02-27T06:53:59;2.67;;;2.30;;
15488;SDS011;7846;48.830;9.116;2023-02-27T06:56:24;2.30;;;2.10;;
15488;SDS011;7846;48.830;9.116;2023-02-27T06:58:51;3.50;;;2.60;;
15488;SDS011;7846;48.830;9.116;2023-02-27T07:01:16;5.37;;;2.40;;
15488;SDS011;7846;48.830;9.116;2023-02-27T07:03:42;2.30;;;2.10;;
15488;SDS011;7846;48.830;9.116;2023-02-27T07:06:07;3.23;;;2.37;;
15488;SDS011;7846;48.830;9.116;2023-02-27T07:08:33;3.33;;;2.30;;
15488;SDS011;7846;48.830;9.116;2023-02-27T07:11:00;2.47;;;2.10;;
15488;SDS011;7846;48.830;9.116;2023-02-27T07:13:27;2.57;;;2.30;;
15488;SDS011;7846;48.830;9.116;2023-02-27T07:15:52;4.77;;;2.13;;
15488;SDS011;7846;48.830;9.116;2023-02-27T07:18:18;2.40;;;2.10;;
15488;SDS011;7846;48.830;9.116;2023-02-27T07:20:44;3.67;;;2.30;;
15488;SDS011;7846;48.830;9.116;2023-02-27T07:23:13;2.50;;;2.30;;
15488;SDS011;7846;48.830;9.116;2023-02-27T07:25:39;2.77;;;2.10;;
15488;SDS011;7846;48.830;9.116;2023-02-27T07:28:05;4.30;;;2.30;;
15488;SDS011;7846;48.830;9.116;2023-02-27T07:30:30;3.67;;;2.20;;
15488;SDS011;7846;48.830;9.116;2023-02-27T07:32:56;3.13;;;2.20;;
15488;SDS011;7846;48.830;9.116;2023-02-27T07:35:21;2.67;;;2.03;;
15488;SDS011;7846;48.830;9.116;2023-02-27T07:37:46;3.00;;;2.23;;
15488;SDS011;7846;48.830;9.116;2023-02-27T07:40:12;2.13;;;1.90;;
15488;SDS011;7846;48.830;9.116;2023-02-27T07:42:38;2.57;;;2.20;;
15488;SDS011;7846;48.830;9.116;2023-02-27T07:45:03;2.20;;;2.00;;
15488;SDS011;7846;48.830;9.116;2023-02-27T07:47:29;3.03;;;2.10;;
15488;SDS011;7846;48.830;9.116;2023-02-27T07:49:55;2.83;;;2.07;;
15488;SDS011;7846;48.830;9.116;2023-02-27T07:52:21;3.27;;;2.17;;
15488;SDS011;7846;48.830;9.116;2023-02-27T07:54:48;3.03;;;2.10;;
15488;SDS011;7846;48.830;9.116;2023-02-27T07:57:13;2.47;;;2.17;;
15488;SDS011;7846;48.830;9.116;2023-02-27T07:59:38;2.80;;;1.90;;
15488;SDS011;7846;48.830;9.116;2023-02-27T08:02:04;3.73;;;1.90;;
15488;SDS011;7846;48.830;9.116;2023-02-27T08:04:31;1.93;;;1.83;;
15488;SDS011;7846;48.830;9.116;2023-02-27T08:06:57;2.27;;;1.90;;
15488;SDS011;7846;48.830;9.116;2023-02-27T08:09:23;2.47;;;2.10;;
15488;SDS011;7846;48.830;9.116;2023-02-27T08:11:48;4.23;;;2.30;;
15488;SDS011;7846;48.830;9.116;2023-02-27T08:14:15;2.10;;;1.90;;
15488;SDS011;7846;48.830;9.116;2023-02-27T08:16:42;2.00;;;1.67;;
15488;SDS011;7846;48.830;9.116;2023-02-27T08:19:07;3.10;;;2.23;;
15488;SDS011;7846;48.830;9.116;2023-02-27T08:21:32;2.57;;;2.10;;
15488;SDS011;7846;48.830;9.116;2023-02-27T08:23:59;3.00;;;1.90;;
15488;SDS011;7846;48.830;9.116;2023-02-27T08:26:25;2.90;;;1.77;;
15488;SDS011;7846;48.830;9.116;2023-02-27T08:28:52;2.27;;;1.80;;
15488;SDS011;7846;48.830;9.116;2023-02-27T08:31:18;2.60;;;2.03;;
15488;SDS011;7846;48.830;9.116;2023-02-27T08:33:43;2.27;;;1.90;;
15488;SDS011;7846;48.830;9.116;2023-02-27T08:36:09;4.00;;;2.10;;
15488;SDS011;7846;48.830;9.116;2023-02-27T08:38:34;1.90;;;1.70;;
15488;SDS011;7846;48.830;9.116;2023-02-27T08:41:01;2.13;;;1.93;;
15488;SDS011;7846;48.830;9.116;2023-02-27T08:43:27;2.63;;;1.63;;
15488;SDS011;7846;48.830;9.116;2023-02-27T08:45:53;1.90;;;1.70;;
15488;SDS011;7846;48.830;9.116;2023-02-27T08:48:19;2.80;;;1.83;;
15488;SDS011;7846;48.830;9.116;2023-02-27T08:50:45;2.77;;;1.83;;
15488;SDS011;7846;48.830;9.116;2023-02-27T08:53:11;3.70;;;2.13;;
15488;SDS011;7846;48.830;9.116;2023-02-27T08:55:36;3.77;;;1.77;;
15488;SDS011;7846;48.830;9.116;2023-02-27T08:58:02;2.77;;;2.10;;
15488;SDS011;7846;48.830;9.116;2023-02-27T09:00:28;2.27;;;1.90;;
15488;SDS011;7846;48.830;9.116;2023-02-27T09:02:54;2.37;;;1.97;;
15488;SDS011;7846;48.830;9.116;2023-02-27T09:05:20;2.13;;;1.80;;
15488;SDS011;7846;48.830;9.116;2023-02-27T09:07:46;3.60;;;1.80;;
15488;SDS011;7846;48.830;9.116;2023-02-27T09:10:13;2.37;;;2.03;;
15488;SDS011;7846;48.830;9.116;2023-02-27T09:12:39;1.90;;;1.70;;
15488;SDS011;7846;48.830;9.116;2023-02-27T09:15:06;2.07;;;1.80;;
15488;SDS011;7846;48.830;9.116;2023-02-27T09:17:32;2.33;;;2.00;;
15488;SDS011;7846;48.830;9.116;2023-02-27T09:19:57;3.33;;;1.80;;
15488;SDS011;7846;48.830;9.116;2023-02-27T09:22:23;2.97;;;1.87;;
15488;SDS011;7846;48.830;9.116;2023-02-27T09:24:48;1.87;;;1.77;;
15488;SDS011;7846;48.830;9.116;2023-02-27T09:27:15;1.70;;;1.60;;
15488;SDS011;7846;48.830;9.116;2023-02-27T09:29:42;2.10;;;1.60;;
15488;SDS011;7846;48.830;9.116;2023-02-27T09:32:07;3.53;;;1.60;;
15488;SDS011;7846;48.830;9.116;2023-02-27T09:34:32;2.70;;;1.87;;
15488;SDS011;7846;48.830;9.116;2023-02-27T09:36:58;1.80;;;1.70;;
15488;SDS011;7846;48.830;9.116;2023-02-27T09:39:24;1.87;;;1.70;;
15488;SDS011;7846;48.830;9.116;2023-02-27T09:41:51;1.70;;;1.60;;
15488;SDS011;7846;48.830;9.116;2023-02-27T09:44:24;1.90;;;1.70;;
15488;SDS011;7846;48.830;9.116;2023-02-27T09:47:02;2.47;;;1.63;;
15488;SDS011;7846;48.830;9.116;2023-02-27T09:49:33;1.80;;;1.70;;
15488;SDS011;7846;48.830;9.116;2023-02-27T09:52:08;1.80;;;1.70;;
15488;SDS011;7846;48.830;9.116;2023-02-27T09:54:37;2.63;;;1.80;;
15488;SDS011;7846;48.830;9.116;2023-02-27T09:57:02;1.93;;;1.63;;
15488;SDS011;7846;48.830;9.116;2023-02-27T09:59:38;3.33;;;1.60;;
15488;SDS011;7846;48.830;9.116;2023-02-27T10:05:00;1.90;;;1.80;;
15488;SDS011;7846;48.830;9.116;2023-02-27T10:07:48;1.70;;;1.60;;
15488;SDS011;7846;48.830;9.116;2023-02-27T10:13:21;2.00;;;1.83;;
15488;SDS011;7846;48.830;9.116;2023-02-27T10:15:55;1.40;;;1.30;;
15488;SDS011;7846;48.830;9.116;2023-02-27T10:20:59;3.80;;;1.60;;
15488;SDS011;7846;48.830;9.116;2023-02-27T10:26:51;1.67;;;1.37;;
15488;SDS011;7846;48.830;9.116;2023-02-27T10:32:05;1.47;;;1.37;;
15488;SDS011;7846;48.830;9.116;2023-02-27T10:34:34;1.63;;;1.40;;
15488;SDS011;7846;48.830;9.116;2023-02-27T10:37:02;2.13;;;1.70;;
15488;SDS011;7846;48.830;9.116;2023-02-27T10:39:30;2.13;;;1.50;;
15488;SDS011;7846;48.830;9.116;2023-02-27T10:42:06;1.40;;;1.30;;
15488;SDS011;7846;48.830;9.116;2023-02-27T10:44:36;1.50;;;1.40;;
15488;SDS011;7846;48.830;9.116;2023-02-27T10:47:02;1.47;;;1.37;;
15488;SDS011;7846;48.830;9.116;2023-02-27T10:49:28;1.97;;;1.77;;
15488;SDS011;7846;48.830;9.116;2023-02-27T10:52:04;2.43;;;1.50;;
15488;SDS011;7846;48.830;9.116;2023-02-27T10:54:32;1.50;;;1.40;;
15488;SDS011;7846;48.830;9.116;2023-02-27T10:56:59;1.60;;;1.50;;
15488;SDS011;7846;48.830;9.116;2023-02-27T10:59:26;1.30;;;1.27;;
15488;SDS011;7846;48.830;9.116;2023-02-27T11:01:56;3.37;;;1.60;;
15488;SDS011;7846;48.830;9.116;2023-02-27T11:04:34;2.87;;;1.53;;
15488;SDS011;7846;48.830;9.116;2023-02-27T11:07:03;1.87;;;1.40;;
15488;SDS011;7846;48.830;9.116;2023-02-27T11:09:33;2.47;;;1.60;;
15488;SDS011;7846;48.830;9.116;2023-02-27T11:12:09;2.03;;;1.20;;
15488;SDS011;7846;48.830;9.116;2023-02-27T11:14:46;1.93;;;1.50;;
15488;SDS011;7846;48.830;9.116;2023-02-27T11:17:21;3.43;;;1.53;;
15488;SDS011;7846;48.830;9.116;2023-02-27T11:19:48;1.40;;;1.30;;
15488;SDS011;7846;48.830;9.116;2023-02-27T11:24:44;2.03;;;1.33;;
15488;SDS011;7846;48.830;9.116;2023-02-27T11:27:21;2.83;;;1.47;;
15488;SDS011;7846;48.830;9.116;2023-02-27T11:30:05;1.67;;;1.57;;
15488;SDS011;7846;48.830;9.116;2023-02-27T11:32:44;2.07;;;1.50;;
15488;SDS011;7846;48.830;9.116;2023-02-27T11:35:19;1.63;;;1.20;;
15488;SDS011;7846;48.830;9.116;2023-02-27T11:37:51;2.57;;;1.60;;
15488;SDS011;7846;48.830;9.116;2023-02-27T11:40:19;1.60;;;1.50;;
15488;SDS011;7846;48.830;9.116;2023-02-27T11:42:48;2.07;;;1.63;;
15488;SDS011;7846;48.830;9.116;2023-02-27T11:47:47;1.63;;;1.30;;
15488;SDS011;7846;48.830;9.116;2023-02-27T11:50:29;1.60;;;1.50;;
15488;SDS011;7846;48.830;9.116;2023-02-27T11:53:19;1.40;;;1.30;;
15488;SDS011;7846;48.830;9.116;2023-02-27T11:55:58;1.60;;;1.40;;
15488;SDS011;7846;48.830;9.116;2023-02-27T11:58:29;1.60;;;1.17;;
15488;SDS011;7846;48.830;9.116;2023-02-27T12:01:00;1.40;;;1.20;;
15488;SDS011;7846;48.830;9.116;2023-02-27T12:03:44;1.40;;;1.30;;
15488;SDS011;7846;48.830;9.116;2023-02-27T12:06:17;1.07;;;1.07;;
15488;SDS011;7846;48.830;9.116;2023-02-27T12:08:54;2.10;;;1.10;;
15488;SDS011;7846;48.830;9.116;2023-02-27T12:11:28;1.80;;;1.40;;
15488;SDS011;7846;48.830;9.116;2023-02-27T12:16:40;1.40;;;1.20;;
15488;SDS011;7846;48.830;9.116;2023-02-27T12:21:49;1.80;;;1.70;;
15488;SDS011;7846;48.830;9.116;2023-02-27T12:24:40;1.40;;;1.30;;
15488;SDS011;7846;48.830;9.116;2023-02-27T12:27:40;2.10;;;1.17;;
15488;SDS011;7846;48.830;9.116;2023-02-27T12:30:30;2.73;;;1.77;;
15488;SDS011;7846;48.830;9.116;2023-02-27T12:33:02;2.73;;;1.50;;
15488;SDS011;7846;48.830;9.116;2023-02-27T12:35:37;2.53;;;1.80;;
15488;SDS011;7846;48.830;9.116;2023-02-27T12:38:04;2.17;;;1.60;;
15488;SDS011;7846;48.830;9.116;2023-02-27T12:40:39;1.73;;;1.63;;
15488;SDS011;7846;48.830;9.116;2023-02-27T12:49:10;1.73;;;1.50;;
15488;SDS011;7846;48.830;9.116;2023-02-27T12:54:51;2.50;;;1.67;;
15488;SDS011;7846;48.830;9.116;2023-02-27T12:57:28;1.60;;;1.50;;
15488;SDS011;7846;48.830;9.116;2023-02-27T13:00:13;4.20;;;1.60;;
15488;SDS011;7846;48.830;9.116;2023-02-27T13:02:49;3.63;;;1.67;;
15488;SDS011;7846;48.830;9.116;2023-02-27T13:08:05;1.77;;;1.47;;
15488;SDS011;7846;48.830;9.116;2023-02-27T13:13:09;1.73;;;1.43;;
15488;SDS011;7846;48.830;9.116;2023-02-27T13:15:50;2.10;;;1.60;;
15488;SDS011;7846;48.830;9.116;2023-02-27T13:18:29;2.70;;;1.43;;
15488;SDS011;7846;48.830;9.116;2023-02-27T13:21:15;1.67;;;1.53;;
15488;SDS011;7846;48.830;9.116;2023-02-27T13:23:52;1.63;;;1.53;;
15488;SDS011;7846;48.830;9.116;2023-02-27T13:26:28;2.00;;;1.50;;
15488;SDS011;7846;48.830;9.116;2023-02-27T13:28:58;3.37;;;1.50;;
15488;SDS011;7846;48.830;9.116;2023-02-27T13:34:16;2.57;;;1.50;;
15488;SDS011;7846;48.830;9.116;2023-02-27T13:37:00;2.37;;;1.60;;
15488;SDS011;7846;48.830;9.116;2023-02-27T13:44:52;2.47;;;1.60;;
15488;SDS011;7846;48.830;9.116;2023-02-27T13:50:01;3.80;;;1.60;;
15488;SDS011;7846;48.830;9.116;2023-02-27T13:52:33;2.27;;;1.40;;
15488;SDS011;7846;48.830;9.116;2023-02-27T13:55:01;2.57;;;1.50;;
15488;SDS011;7846;48.830;9.116;2023-02-27T13:57:30;1.37;;;1.20;;
15488;SDS011;7846;48.830;9.116;2023-02-27T13:59:59;4.37;;;1.40;;
15488;SDS011;7846;48.830;9.116;2023-02-27T14:02:33;1.70;;;1.30;;
15488;SDS011;7846;48.830;9.116;2023-02-27T14:05:04;2.53;;;1.37;;
15488;SDS011;7846;48.830;9.116;2023-02-27T14:10:23;2.30;;;1.40;;
15488;SDS011;7846;48.830;9.116;2023-02-27T14:12:52;2.40;;;1.40;;
15488;SDS011;7846;48.830;9.116;2023-02-27T14:17:47;2.50;;;1.27;;
15488;SDS011;7846;48.830;9.116;2023-02-27T14:20:46;3.27;;;1.30;;
15488;SDS011;7846;48.830;9.116;2023-02-27T14:28:46;1.57;;;1.10;;
15488;SDS011;7846;48.830;9.116;2023-02-27T14:31:20;1.63;;;1.27;;
15488;SDS011;7846;48.830;9.116;2023-02-27T14:33:52;1.80;;;1.40;;
15488;SDS011;7846;48.830;9.116;2023-02-27T14:36:22;1.93;;;1.20;;
15488;SDS011;7846;48.830;9.116;2023-02-27T14:38:52;2.73;;;1.30;;
15488;SDS011;7846;48.830;9.116;2023-02-27T14:44:25;1.30;;;1.20;;
15488;SDS011;7846;48.830;9.116;2023-02-27T14:46:53;1.63;;;1.20;;
15488;SDS011;7846;48.830;9.116;2023-02-27T14:49:24;3.07;;;1.30;;
15488;SDS011;7846;48.830;9.116;2023-02-27T14:51:53;1.40;;;1.07;;
15488;SDS011;7846;48.830;9.116;2023-02-27T14:54:25;2.20;;;1.10;;
15488;SDS011;7846;48.830;9.116;2023-02-27T14:57:02;1.93;;;1.40;;
15488;SDS011;7846;48.830;9.116;2023-02-27T14:59:31;2.47;;;1.20;;
15488;SDS011;7846;48.830;9.116;2023-02-27T15:02:08;1.30;;;1.20;;
15488;SDS011;7846;48.830;9.116;2023-02-27T15:04:40;1.50;;;1.40;;
15488;SDS011;7846;48.830;9.116;2023-02-27T15:07:11;1.93;;;1.20;;
15488;SDS011;7846;48.830;9.116;2023-02-27T15:09:48;1.03;;;0.90;;
15488;SDS011;7846;48.830;9.116;2023-02-27T15:12:16;1.87;;;1.23;;
15488;SDS011;7846;48.830;9.116;2023-02-27T15:14:46;3.43;;;1.40;;
15488;SDS011;7846;48.830;9.116;2023-02-27T15:17:15;1.13;;;1.10;;
15488;SDS011;7846;48.830;9.116;2023-02-27T15:19:47;1.20;;;1.20;;
15488;SDS011;7846;48.830;9.116;2023-02-27T15:22:19;1.47;;;1.20;;
15488;SDS011;7846;48.830;9.116;2023-02-27T15:24:50;1.40;;;1.20;;
15488;SDS011;7846;48.830;9.116;2023-02-27T15:27:20;1.43;;;1.10;;
15488;SDS011;7846;48.830;9.116;2023-02-27T15:29:50;1.73;;;1.20;;
15488;SDS011;7846;48.830;9.116;2023-02-27T15:32:39;1.57;;;1.37;;
15488;SDS011;7846;48.830;9.116;2023-02-27T15:37:56;2.23;;;1.10;;
15488;SDS011;7846;48.830;9.116;2023-02-27T15:40:23;1.30;;;1.10;;
15488;SDS011;7846;48.830;9.116;2023-02-27T15:42:52;1.20;;;1.10;;
15488;SDS011;7846;48.830;9.116;2023-02-27T15:45:19;1.70;;;1.60;;
15488;SDS011;7846;48.830;9.116;2023-02-27T15:47:48;1.40;;;1.30;;
15488;SDS011;7846;48.830;9.116;2023-02-27T15:52:41;1.43;;;1.07;;
15488;SDS011;7846;48.830;9.116;2023-02-27T15:55:40;1.40;;;1.03;;
15488;SDS011;7846;48.830;9.116;2023-02-27T15:58:43;1.10;;;1.00;;
15488;SDS011;7846;48.830;9.116;2023-02-27T16:01:05;1.93;;;1.20;;
15488;SDS011;7846;48.830;9.116;2023-02-27T16:03:36;3.07;;;1.43;;
15488;SDS011;7846;48.830;9.116;2023-02-27T16:06:10;2.00;;;1.30;;
15488;SDS011;7846;48.830;9.116;2023-02-27T16:08:43;2.43;;;1.70;;
15488;SDS011;7846;48.830;9.116;2023-02-27T16:11:18;2.57;;;1.10;;
15488;SDS011;7846;48.830;9.116;2023-02-27T16:13:44;1.70;;;1.10;;
15488;SDS011;7846;48.830;9.116;2023-02-27T16:18:46;2.50;;;1.50;;
15488;SDS011;7846;48.830;9.116;2023-02-27T16:21:14;1.07;;;1.00;;
15488;SDS011;7846;48.830;9.116;2023-02-27T16:23:42;1.40;;;1.10;;
15488;SDS011;7846;48.830;9.116;2023-02-27T16:28:58;1.10;;;1.00;;
15488;SDS011;7846;48.830;9.116;2023-02-27T16:31:31;2.20;;;1.10;;
15488;SDS011;7846;48.830;9.116;2023-02-27T16:34:12;2.10;;;1.20;;
15488;SDS011;7846;48.830;9.116;2023-02-27T16:36:56;1.90;;;1.17;;
15488;SDS011;7846;48.830;9.116;2023-02-27T16:39:23;2.13;;;1.10;;
15488;SDS011;7846;48.830;9.116;2023-02-27T16:41:51;1.47;;;1.00;;
15488;SDS011;7846;48.830;9.116;2023-02-27T16:44:20;5.63;;;1.20;;
15488;SDS011;7846;48.830;9.116;2023-02-27T16:46:46;1.30;;;1.20;;
15488;SDS011;7846;48.830;9.116;2023-02-27T16:49:18;1.80;;;1.30;;
15488;SDS011;7846;48.830;9.116;2023-02-27T16:51:54;1.83;;;1.30;;
15488;SDS011;7846;48.830;9.116;2023-02-27T16:54:20;1.60;;;1.30;;
15488;SDS011;7846;48.830;9.116;2023-02-27T16:56:46;1.20;;;1.10;;
15488;SDS011;7846;48.830;9.116;2023-02-27T16:59:25;2.17;;;1.30;;
15488;SDS011;7846;48.830;9.116;2023-02-27T17:01:52;2.10;;;1.20;;
15488;SDS011;7846;48.830;9.116;2023-02-27T17:04:17;1.73;;;1.30;;
15488;SDS011;7846;48.830;9.116;2023-02-27T17:06:42;1.47;;;1.20;;
15488;SDS011;7846;48.830;9.116;2023-02-27T17:09:12;1.43;;;1.23;;
15488;SDS011;7846;48.830;9.116;2023-02-27T17:11:37;1.70;;;1.40;;
15488;SDS011;7846;48.830;9.116;2023-02-27T17:14:04;1.33;;;1.10;;
15488;SDS011;7846;48.830;9.116;2023-02-27T17:16:29;2.37;;;1.30;;
15488;SDS011;7846;48.830;9.116;2023-02-27T17:18:55;1.67;;;1.20;;
15488;SDS011;7846;48.830;9.116;2023-02-27T17:21:21;1.73;;;1.17;;